createdAt,value
2023-02-22T00:00:42.086Z,24.32
2023-02-22T00:01:42.106Z,24.35
2023-02-22T00:02:42.025Z,24.35
2023-02-22T00:03:42.005Z,24.35
2023-02-22T00:04:41.983Z,24.35
2023-02-22T00:05:41.943Z,24.34
2023-02-22T00:06:41.901Z,24.38
2023-02-22T00:07:41.880Z,24.34
2023-02-22T00:08:41.844Z,24.38
2023-02-22T00:09:41.810Z,24.34
2023-02-22T00:10:41.790Z,24.34
2023-02-22T00:11:41.752Z,24.35
2023-02-22T00:12:41.714Z,24.37
2023-02-22T00:13:41.686Z,24.35
2023-02-22T00:14:41.652Z,24.35
2023-02-22T00:15:41.636Z,24.37
2023-02-22T00:16:41.648Z,24.35
2023-02-22T00:17:41.576Z,24.34
2023-02-22T00:18:41.547Z,24.35
2023-02-22T00:19:41.512Z,24.35
2023-02-22T00:20:41.483Z,24.35
2023-02-22T00:21:41.449Z,24.35
2023-02-22T00:22:41.411Z,24.34
2023-02-22T00:23:41.383Z,24.37
2023-02-22T00:24:41.356Z,24.37
2023-02-22T00:25:41.327Z,24.35
2023-02-22T00:26:41.310Z,24.34
2023-02-22T00:27:41.276Z,24.35
2023-02-22T00:28:41.234Z,24.32
2023-02-22T00:29:41.215Z,24.34
2023-02-22T00:30:41.294Z,24.32
2023-02-22T00:31:41.218Z,24.34
2023-02-22T00:32:41.137Z,24.34
2023-02-22T00:33:41.101Z,24.31
2023-02-22T00:34:41.091Z,24.34
2023-02-22T00:35:41.060Z,24.32
2023-02-22T00:36:41.032Z,24.32
2023-02-22T00:37:41.005Z,24.31
2023-02-22T00:38:40.986Z,24.34
2023-02-22T00:39:40.957Z,24.35
2023-02-22T00:40:40.933Z,24.32
2023-02-22T00:41:40.952Z,24.32
2023-02-22T00:42:40.880Z,24.32
2023-02-22T00:43:40.855Z,24.32
2023-02-22T00:44:40.826Z,24.34
2023-02-22T00:45:40.907Z,24.31
2023-02-22T00:46:40.788Z,24.34
2023-02-22T00:47:40.750Z,24.35
2023-02-22T00:48:40.733Z,24.31
2023-02-22T00:49:40.716Z,24.32
2023-02-22T00:50:40.681Z,24.31
2023-02-22T00:51:40.672Z,24.34
2023-02-22T00:52:40.643Z,24.32
2023-02-22T00:53:40.617Z,24.32
2023-02-22T00:54:40.611Z,24.31
2023-02-22T00:55:40.570Z,24.32
2023-02-22T00:56:40.543Z,24.32
2023-02-22T00:57:40.528Z,24.31
2023-02-22T00:58:40.491Z,24.32
2023-02-22T00:59:40.478Z,24.32
2023-02-22T01:00:40.445Z,24.32
2023-02-22T01:01:40.433Z,24.30
2023-02-22T01:02:40.484Z,24.30
2023-02-22T01:03:40.380Z,24.31
2023-02-22T01:04:40.339Z,24.31
2023-02-22T01:05:40.340Z,24.31
2023-02-22T01:06:40.293Z,24.31
2023-02-22T01:07:40.272Z,24.32
2023-02-22T01:08:40.238Z,24.31
2023-02-22T01:09:40.221Z,24.31
2023-02-22T01:10:40.179Z,24.32
2023-02-22T01:11:40.157Z,24.31
2023-02-22T01:12:40.126Z,24.31
2023-02-22T01:13:40.092Z,24.31
2023-02-22T01:14:40.072Z,24.30
2023-02-22T01:15:40.027Z,24.31
2023-02-22T01:16:40.025Z,24.30
2023-02-22T01:17:39.974Z,24.32
2023-02-22T01:18:39.957Z,24.30
2023-02-22T01:19:39.912Z,24.31
2023-02-22T01:20:39.882Z,24.30
2023-02-22T01:21:39.864Z,24.30
2023-02-22T01:22:39.831Z,24.31
2023-02-22T01:23:39.813Z,24.31
2023-02-22T01:24:39.776Z,24.30
2023-02-22T01:25:39.748Z,24.30
2023-02-22T01:26:39.730Z,24.28
2023-02-22T01:27:39.701Z,24.31
2023-02-22T01:28:39.664Z,24.31
2023-02-22T01:29:39.644Z,24.30
2023-02-22T01:30:39.720Z,24.28
2023-02-22T01:31:39.626Z,24.30
2023-02-22T01:32:39.562Z,24.28
2023-02-22T01:33:39.534Z,24.28
2023-02-22T01:34:39.520Z,24.28
2023-02-22T01:35:39.487Z,24.28
2023-02-22T01:36:39.459Z,24.28
2023-02-22T01:37:39.442Z,24.30
2023-02-22T01:38:39.436Z,24.28
2023-02-22T01:39:39.395Z,24.31
2023-02-22T01:40:39.376Z,24.28
2023-02-22T01:41:39.345Z,24.30
2023-02-22T01:42:39.324Z,24.30
2023-02-22T01:43:39.292Z,24.30
2023-02-22T01:44:39.262Z,24.30
2023-02-22T01:45:39.244Z,24.28
2023-02-22T01:46:39.200Z,24.28
2023-02-22T01:47:39.180Z,24.30
2023-02-22T01:48:39.148Z,24.30
2023-02-22T01:49:39.120Z,24.31
2023-02-22T01:50:39.080Z,24.30
2023-02-22T01:51:39.062Z,24.31
2023-02-22T01:52:39.034Z,24.28
2023-02-22T01:53:39.011Z,24.27
2023-02-22T01:54:38.977Z,24.31
2023-02-22T01:55:38.978Z,24.30
2023-02-22T01:56:38.917Z,24.28
2023-02-22T01:57:38.906Z,24.27
2023-02-22T01:58:38.865Z,24.27
2023-02-22T01:59:38.846Z,24.30
2023-02-22T02:00:38.816Z,24.28
2023-02-22T02:01:38.792Z,24.30
2023-02-22T02:02:38.791Z,24.30
2023-02-22T02:03:38.791Z,24.28
2023-02-22T02:04:38.759Z,24.28
2023-02-22T02:05:38.681Z,24.30
2023-02-22T02:06:38.679Z,24.30
2023-02-22T02:07:39.509Z,24.30
2023-02-22T02:08:38.620Z,24.28
2023-02-22T02:09:38.599Z,24.28
2023-02-22T02:10:38.578Z,24.27
2023-02-22T02:11:38.556Z,24.27
2023-02-22T02:12:38.544Z,24.31
2023-02-22T02:13:38.523Z,24.27
2023-02-22T02:14:38.494Z,24.27
2023-02-22T02:15:38.475Z,24.30
2023-02-22T02:16:38.483Z,24.27
2023-02-22T02:17:38.436Z,24.30
2023-02-22T02:18:38.416Z,24.30
2023-02-22T02:19:38.389Z,24.28
2023-02-22T02:20:38.372Z,24.28
2023-02-22T02:21:38.371Z,24.27
2023-02-22T02:22:38.345Z,24.28
2023-02-22T02:23:38.327Z,24.25
2023-02-22T02:24:38.286Z,24.30
2023-02-22T02:25:38.275Z,24.30
2023-02-22T02:26:38.257Z,24.27
2023-02-22T02:27:38.234Z,24.27
2023-02-22T02:28:38.219Z,24.27
2023-02-22T02:29:38.243Z,24.30
2023-02-22T02:30:38.260Z,24.28
2023-02-22T02:31:38.235Z,24.27
2023-02-22T02:32:38.134Z,24.28
2023-02-22T02:33:38.110Z,24.25
2023-02-22T02:34:38.072Z,24.27
2023-02-22T02:35:38.051Z,24.27
2023-02-22T02:36:38.031Z,24.27
2023-02-22T02:37:38.021Z,24.27
2023-02-22T02:38:38.031Z,24.30
2023-02-22T02:39:37.978Z,24.27
2023-02-22T02:40:37.942Z,24.27
2023-02-22T02:41:37.913Z,24.30
2023-02-22T02:42:37.888Z,24.30
2023-02-22T02:43:37.868Z,24.27
2023-02-22T02:44:37.841Z,24.27
2023-02-22T02:45:37.824Z,24.27
2023-02-22T02:46:37.797Z,24.25
2023-02-22T02:47:37.790Z,24.28
2023-02-22T02:48:37.769Z,24.30
2023-02-22T02:49:37.725Z,24.28
2023-02-22T02:50:37.691Z,24.28
2023-02-22T02:51:37.659Z,24.27
2023-02-22T02:52:37.625Z,24.27
2023-02-22T02:53:37.622Z,24.28
2023-02-22T02:54:37.589Z,24.27
2023-02-22T02:55:37.555Z,24.27
2023-02-22T02:56:37.522Z,24.31
2023-02-22T02:57:37.503Z,24.30
2023-02-22T02:58:37.465Z,24.28
2023-02-22T02:59:37.445Z,24.27
2023-02-22T03:00:37.430Z,24.27
2023-02-22T03:01:37.398Z,24.28
2023-02-22T03:02:37.356Z,24.28
2023-02-22T03:03:37.340Z,24.28
2023-02-22T03:04:37.326Z,24.27
2023-02-22T03:05:37.277Z,24.27
2023-02-22T03:06:37.252Z,24.28
2023-02-22T03:07:37.241Z,24.27
2023-02-22T03:08:37.209Z,24.27
2023-02-22T03:09:37.172Z,24.27
2023-02-22T03:10:37.146Z,24.27
2023-02-22T03:11:37.118Z,24.27
2023-02-22T03:12:37.099Z,24.28
2023-02-22T03:13:37.065Z,24.28
2023-02-22T03:14:37.041Z,24.30
2023-02-22T03:15:37.008Z,24.25
2023-02-22T03:16:37.044Z,24.28
2023-02-22T03:17:36.954Z,24.28
2023-02-22T03:18:36.928Z,24.27
2023-02-22T03:19:36.898Z,24.30
2023-02-22T03:20:36.871Z,24.30
2023-02-22T03:21:36.840Z,24.28
2023-02-22T03:22:36.821Z,24.30
2023-02-22T03:23:36.786Z,24.27
2023-02-22T03:24:36.769Z,24.27
2023-02-22T03:25:36.736Z,24.28
2023-02-22T03:26:36.704Z,24.31
2023-02-22T03:27:36.690Z,24.27
2023-02-22T03:28:36.661Z,24.30
2023-02-22T03:29:36.669Z,24.27
2023-02-22T03:30:36.688Z,24.27
2023-02-22T03:31:36.561Z,24.25
2023-02-22T03:32:36.533Z,24.27
2023-02-22T03:33:36.511Z,24.30
2023-02-22T03:34:36.476Z,24.30
2023-02-22T03:35:36.438Z,24.28
2023-02-22T03:36:36.407Z,24.27
2023-02-22T03:37:36.375Z,24.30
2023-02-22T03:38:36.349Z,24.30
2023-02-22T03:39:36.320Z,24.27
2023-02-22T03:40:36.288Z,24.27
2023-02-22T03:41:36.265Z,24.27
2023-02-22T03:42:36.233Z,24.25
2023-02-22T03:43:36.213Z,24.27
2023-02-22T03:44:36.172Z,24.27
2023-02-22T03:45:36.138Z,24.25
2023-02-22T03:46:36.148Z,24.25
2023-02-22T03:47:36.080Z,24.25
2023-02-22T03:48:36.051Z,24.24
2023-02-22T03:49:36.090Z,24.24
2023-02-22T03:50:35.998Z,24.25
2023-02-22T03:51:35.991Z,24.27
2023-02-22T03:52:35.942Z,24.27
2023-02-22T03:53:35.913Z,24.25
2023-02-22T03:54:35.884Z,24.23
2023-02-22T03:55:35.845Z,24.25
2023-02-22T03:56:35.986Z,24.25
2023-02-22T03:57:35.794Z,24.23
2023-02-22T03:58:35.770Z,24.21
2023-02-22T03:59:35.771Z,24.23
2023-02-22T04:00:35.716Z,24.21
2023-02-22T04:01:35.689Z,24.20
2023-02-22T04:02:35.670Z,24.20
2023-02-22T04:03:35.661Z,24.20
2023-02-22T04:04:35.640Z,24.19
2023-02-22T04:05:35.597Z,24.20
2023-02-22T04:06:35.564Z,24.19
2023-02-22T04:07:35.537Z,24.19
2023-02-22T04:08:35.512Z,24.17
2023-02-22T04:09:35.496Z,24.17
2023-02-22T04:10:35.465Z,24.17
2023-02-22T04:11:35.431Z,24.17
2023-02-22T04:12:35.403Z,24.19
2023-02-22T04:13:35.372Z,24.17
2023-02-22T04:14:35.381Z,24.17
2023-02-22T04:15:35.338Z,24.16
2023-02-22T04:16:35.309Z,24.14
2023-02-22T04:17:35.278Z,24.14
2023-02-22T04:18:35.263Z,24.14
2023-02-22T04:19:35.233Z,24.14
2023-02-22T04:20:35.209Z,24.13
2023-02-22T04:21:35.185Z,24.11
2023-02-22T04:22:35.156Z,24.13
2023-02-22T04:23:35.141Z,24.13
2023-02-22T04:24:35.107Z,24.11
2023-02-22T04:25:35.090Z,24.13
2023-02-22T04:26:35.085Z,24.11
2023-02-22T04:27:35.051Z,24.10
2023-02-22T04:28:35.039Z,24.11
2023-02-22T04:29:35.009Z,24.11
2023-02-22T04:30:35.062Z,24.10
2023-02-22T04:31:35.011Z,24.10
2023-02-22T04:32:34.927Z,24.10
2023-02-22T04:33:34.898Z,24.10
2023-02-22T04:34:34.892Z,24.09
2023-02-22T04:35:35.643Z,24.09
2023-02-22T04:36:34.832Z,24.07
2023-02-22T04:37:34.832Z,24.09
2023-02-22T04:38:34.788Z,24.07
2023-02-22T04:39:34.797Z,24.10
2023-02-22T04:40:34.757Z,24.09
2023-02-22T04:41:34.724Z,24.07
2023-02-22T04:42:34.706Z,24.09
2023-02-22T04:43:34.690Z,24.10
2023-02-22T04:44:34.658Z,24.07
2023-02-22T04:45:34.630Z,24.07
2023-02-22T04:46:34.701Z,24.07
2023-02-22T04:47:34.589Z,24.09
2023-02-22T04:48:34.568Z,24.09
2023-02-22T04:49:34.536Z,24.09
2023-02-22T04:50:34.515Z,24.04
2023-02-22T04:51:34.496Z,24.07
2023-02-22T04:52:34.494Z,24.06
2023-02-22T04:53:34.442Z,24.07
2023-02-22T04:54:34.431Z,24.06
2023-02-22T04:55:34.403Z,24.09
2023-02-22T04:56:34.377Z,24.06
2023-02-22T04:57:34.349Z,24.06
2023-02-22T04:58:34.340Z,24.06
2023-02-22T04:59:34.317Z,24.09
2023-02-22T05:00:34.287Z,24.06
2023-02-22T05:01:34.256Z,24.04
2023-02-22T05:02:34.255Z,24.03
2023-02-22T05:03:34.200Z,24.06
2023-02-22T05:04:34.223Z,24.06
2023-02-22T05:05:34.160Z,24.06
2023-02-22T05:06:34.149Z,24.04
2023-02-22T05:07:34.116Z,24.03
2023-02-22T05:08:34.097Z,24.04
2023-02-22T05:09:34.084Z,24.03
2023-02-22T05:10:34.059Z,24.06
2023-02-22T05:11:34.056Z,24.04
2023-02-22T05:12:34.021Z,24.03
2023-02-22T05:13:34.001Z,24.02
2023-02-22T05:14:33.990Z,24.02
2023-02-22T05:15:34.007Z,24.03
2023-02-22T05:16:33.963Z,24.04
2023-02-22T05:17:33.920Z,24.06
2023-02-22T05:18:33.905Z,24.03
2023-02-22T05:19:33.874Z,24.04
2023-02-22T05:20:33.882Z,24.03
2023-02-22T05:21:33.846Z,24.04
2023-02-22T05:22:33.829Z,24.06
2023-02-22T05:23:33.793Z,24.06
2023-02-22T05:24:33.773Z,24.02
2023-02-22T05:25:33.755Z,24.03
2023-02-22T05:26:33.736Z,24.04
2023-02-22T05:27:33.702Z,24.00
2023-02-22T05:28:33.680Z,24.04
2023-02-22T05:29:33.654Z,24.04
2023-02-22T05:30:33.738Z,24.02
2023-02-22T05:31:33.714Z,24.03
2023-02-22T05:32:33.607Z,24.03
2023-02-22T05:33:33.574Z,24.02
2023-02-22T05:34:33.559Z,24.04
2023-02-22T05:35:33.525Z,24.02
2023-02-22T05:36:33.518Z,24.00
2023-02-22T05:37:33.472Z,24.03
2023-02-22T05:38:33.455Z,24.02
2023-02-22T05:39:33.422Z,24.03
2023-02-22T05:40:33.410Z,24.03
2023-02-22T05:41:33.384Z,23.99
2023-02-22T05:42:33.369Z,24.00
2023-02-22T05:43:33.332Z,24.03
2023-02-22T05:44:33.320Z,24.03
2023-02-22T05:45:33.291Z,24.02
2023-02-22T05:46:33.314Z,24.04
2023-02-22T05:47:33.251Z,24.02
2023-02-22T05:48:33.237Z,24.06
2023-02-22T05:49:33.203Z,24.03
2023-02-22T05:50:33.325Z,24.02
2023-02-22T05:51:33.180Z,24.04
2023-02-22T05:52:33.145Z,24.04
2023-02-22T05:53:33.125Z,24.03
2023-02-22T05:54:33.105Z,24.03
2023-02-22T05:55:33.098Z,24.04
2023-02-22T05:56:33.091Z,24.07
2023-02-22T05:57:33.051Z,24.06
2023-02-22T05:58:33.044Z,24.04
2023-02-22T05:59:33.012Z,24.04
2023-02-22T06:00:33.009Z,24.06
2023-02-22T06:01:32.974Z,24.04
2023-02-22T06:02:32.960Z,24.04
2023-02-22T06:03:32.931Z,24.02
2023-02-22T06:04:32.913Z,24.02
2023-02-22T06:05:32.944Z,24.02
2023-02-22T06:06:32.865Z,24.03
2023-02-22T06:07:32.846Z,24.04
2023-02-22T06:08:32.839Z,24.04
2023-02-22T06:09:32.837Z,24.04
2023-02-22T06:10:32.783Z,24.03
2023-02-22T06:11:32.754Z,24.04
2023-02-22T06:12:32.730Z,24.04
2023-02-22T06:13:32.705Z,24.03
2023-02-22T06:14:32.689Z,24.06
2023-02-22T06:15:32.670Z,24.02
2023-02-22T06:16:32.654Z,24.03
2023-02-22T06:17:32.622Z,24.02
2023-02-22T06:18:32.601Z,24.06
2023-02-22T06:19:32.579Z,24.03
2023-02-22T06:20:32.568Z,24.04
2023-02-22T06:21:32.546Z,24.03
2023-02-22T06:22:32.524Z,24.02
2023-02-22T06:23:32.499Z,24.04
2023-02-22T06:24:32.473Z,24.03
2023-02-22T06:25:32.494Z,24.04
2023-02-22T06:26:32.440Z,24.02
2023-02-22T06:27:32.417Z,24.00
2023-02-22T06:28:32.422Z,24.03
2023-02-22T06:29:32.386Z,24.00
2023-02-22T06:30:32.410Z,24.02
2023-02-22T06:31:32.395Z,24.02
2023-02-22T06:32:32.379Z,24.04
2023-02-22T06:33:32.308Z,23.97
2023-02-22T06:34:32.320Z,23.95
2023-02-22T06:35:32.275Z,24.00
2023-02-22T06:36:32.275Z,24.03
2023-02-22T06:37:32.228Z,24.06
2023-02-22T06:38:32.218Z,24.11
2023-02-22T06:39:32.187Z,24.17
2023-02-22T06:40:32.151Z,24.20
2023-02-22T06:41:32.168Z,24.24
2023-02-22T06:42:32.152Z,24.28
2023-02-22T06:43:32.106Z,24.35
2023-02-22T06:44:32.077Z,24.38
2023-02-22T06:45:32.046Z,24.44
2023-02-22T06:46:32.013Z,24.45
2023-02-22T06:47:31.980Z,24.48
2023-02-22T06:48:31.954Z,24.56
2023-02-22T06:49:31.924Z,24.56
2023-02-22T06:50:32.914Z,24.61
2023-02-22T06:51:32.697Z,24.63
2023-02-22T06:52:31.889Z,24.69
2023-02-22T06:53:31.812Z,24.72
2023-02-22T06:54:31.781Z,24.71
2023-02-22T06:55:31.796Z,24.75
2023-02-22T06:56:31.716Z,24.76
2023-02-22T06:57:31.682Z,24.80
2023-02-22T06:58:31.770Z,24.85
2023-02-22T06:59:31.645Z,24.85
2023-02-22T07:00:31.588Z,24.89
2023-02-22T07:01:31.561Z,24.90
2023-02-22T07:02:31.535Z,24.94
2023-02-22T07:03:31.599Z,24.94
2023-02-22T07:04:31.523Z,24.94
2023-02-22T07:05:31.495Z,25.00
2023-02-22T07:06:31.414Z,25.02
2023-02-22T07:07:31.380Z,25.03
2023-02-22T07:08:31.400Z,25.07
2023-02-22T07:09:31.313Z,25.07
2023-02-22T07:10:31.280Z,25.09
2023-02-22T07:11:31.258Z,25.07
2023-02-22T07:12:31.217Z,25.10
2023-02-22T07:13:31.200Z,25.13
2023-02-22T07:14:31.166Z,25.15
2023-02-22T07:15:31.125Z,25.15
2023-02-22T07:16:31.124Z,25.17
2023-02-22T07:17:31.055Z,25.20
2023-02-22T07:18:31.089Z,25.20
2023-02-22T07:19:31.048Z,25.20
2023-02-22T07:20:30.966Z,25.21
2023-02-22T07:21:31.111Z,25.21
2023-02-22T07:22:30.917Z,25.22
2023-02-22T07:23:30.882Z,25.21
2023-02-22T07:24:30.874Z,25.25
2023-02-22T07:25:30.825Z,25.27
2023-02-22T07:26:30.812Z,25.27
2023-02-22T07:27:30.777Z,25.30
2023-02-22T07:28:30.732Z,25.28
2023-02-22T07:29:30.727Z,25.32
2023-02-22T07:30:30.833Z,25.34
2023-02-22T07:31:30.652Z,25.34
2023-02-22T07:32:30.713Z,25.35
2023-02-22T07:33:30.582Z,25.37
2023-02-22T07:34:30.567Z,25.37
2023-02-22T07:35:30.546Z,25.37
2023-02-22T07:36:30.482Z,25.39
2023-02-22T07:37:30.442Z,25.39
2023-02-22T07:38:30.414Z,25.42
2023-02-22T07:39:30.374Z,25.42
2023-02-22T07:40:30.347Z,25.44
2023-02-22T07:41:30.334Z,25.45
2023-02-22T07:42:30.295Z,25.45
2023-02-22T07:43:30.295Z,25.48
2023-02-22T07:44:30.230Z,25.48
2023-02-22T07:45:30.249Z,25.50
2023-02-22T07:46:30.134Z,25.56
2023-02-22T07:47:30.097Z,25.59
2023-02-22T07:48:30.080Z,25.65
2023-02-22T07:49:30.069Z,25.70
2023-02-22T07:50:29.996Z,25.77
2023-02-22T07:51:29.964Z,25.79
2023-02-22T07:52:29.932Z,25.81
2023-02-22T07:53:29.942Z,25.87
2023-02-22T07:54:29.876Z,25.89
2023-02-22T07:55:29.835Z,25.91
2023-02-22T07:56:29.789Z,25.96
2023-02-22T07:57:29.763Z,25.98
2023-02-22T07:58:29.728Z,26.04
2023-02-22T07:59:29.677Z,26.05
2023-02-22T08:00:29.643Z,26.09
2023-02-22T08:01:29.617Z,26.08
2023-02-22T08:02:29.629Z,26.13
2023-02-22T08:03:29.557Z,26.17
2023-02-22T08:04:29.446Z,26.17
2023-02-22T08:05:29.418Z,26.22
2023-02-22T08:06:29.365Z,26.22
2023-02-22T08:07:29.376Z,26.27
2023-02-22T08:08:29.272Z,26.28
2023-02-22T08:09:29.238Z,26.31
2023-02-22T08:10:29.199Z,26.32
2023-02-22T08:11:29.145Z,26.31
2023-02-22T08:12:29.107Z,26.28
2023-02-22T08:13:29.050Z,26.28
2023-02-22T08:14:29.046Z,26.31
2023-02-22T08:15:28.968Z,26.27
2023-02-22T08:16:28.998Z,26.27
2023-02-22T08:17:28.885Z,26.31
2023-02-22T08:18:28.845Z,26.28
2023-02-22T08:19:28.858Z,26.27
2023-02-22T08:20:28.756Z,26.28
2023-02-22T08:21:28.722Z,26.28
2023-02-22T08:22:28.690Z,26.28
2023-02-22T08:23:28.650Z,26.24
2023-02-22T08:24:28.586Z,26.24
2023-02-22T08:25:28.565Z,26.24
2023-02-22T08:26:28.524Z,26.24
2023-02-22T08:27:28.463Z,26.18
2023-02-22T08:28:28.426Z,26.20
2023-02-22T08:29:28.471Z,26.17
2023-02-22T08:30:28.405Z,26.14
2023-02-22T08:31:28.329Z,26.17
2023-02-22T08:32:28.406Z,26.15
2023-02-22T08:33:28.225Z,26.15
2023-02-22T08:34:28.194Z,26.14
2023-02-22T08:35:28.156Z,26.15
2023-02-22T08:36:28.128Z,26.15
2023-02-22T08:37:28.064Z,26.18
2023-02-22T08:38:28.015Z,26.24
2023-02-22T08:39:27.984Z,26.25
2023-02-22T08:40:27.967Z,26.32
2023-02-22T08:41:27.870Z,26.32
2023-02-22T08:42:27.831Z,26.36
2023-02-22T08:43:27.793Z,26.35
2023-02-22T08:44:27.764Z,26.38
2023-02-22T08:45:27.731Z,26.38
2023-02-22T08:46:27.693Z,26.39
2023-02-22T08:47:27.662Z,26.39
2023-02-22T08:48:27.592Z,26.42
2023-02-22T08:49:27.529Z,26.41
2023-02-22T08:50:27.492Z,26.42
2023-02-22T08:51:27.892Z,26.42
2023-02-22T08:52:27.393Z,26.46
2023-02-22T08:53:27.362Z,26.46
2023-02-22T08:54:27.310Z,26.48
2023-02-22T08:55:27.261Z,26.49
2023-02-22T08:56:27.222Z,26.52
2023-02-22T08:57:27.181Z,26.48
2023-02-22T08:58:27.154Z,26.43
2023-02-22T08:59:27.094Z,26.45
2023-02-22T09:00:27.039Z,26.43
2023-02-22T09:01:32.935Z,26.43
2023-02-22T09:02:27.947Z,26.42
2023-02-22T09:03:27.076Z,26.45
2023-02-22T09:04:26.859Z,26.42
2023-02-22T09:05:26.827Z,26.39
2023-02-22T09:06:26.775Z,26.38
2023-02-22T09:07:26.734Z,26.41
2023-02-22T09:08:26.714Z,26.35
2023-02-22T09:09:26.655Z,26.39
2023-02-22T09:10:26.623Z,26.36
2023-02-22T09:11:26.567Z,26.34
2023-02-22T09:12:26.569Z,26.34
2023-02-22T09:13:26.466Z,26.31
2023-02-22T09:14:26.435Z,26.30
2023-02-22T09:15:26.396Z,26.32
2023-02-22T09:16:26.398Z,26.30
2023-02-22T09:17:26.375Z,26.28
2023-02-22T09:18:30.556Z,26.25
2023-02-22T09:19:27.200Z,26.22
2023-02-22T09:20:26.209Z,26.24
2023-02-22T09:21:26.117Z,26.22
2023-02-22T09:22:26.073Z,26.21
2023-02-22T09:23:26.150Z,26.15
2023-02-22T09:24:26.002Z,26.20
2023-02-22T09:25:25.954Z,26.20
2023-02-22T09:26:25.910Z,26.21
2023-02-22T09:27:25.876Z,26.18
2023-02-22T09:28:27.294Z,26.21
2023-02-22T09:29:25.779Z,26.20
2023-02-22T09:30:25.780Z,26.20
2023-02-22T09:31:25.810Z,26.21
2023-02-22T09:32:25.829Z,26.21
2023-02-22T09:33:25.638Z,26.22
2023-02-22T09:34:25.545Z,26.22
2023-02-22T09:35:25.512Z,26.25
2023-02-22T09:36:26.279Z,26.24
2023-02-22T09:37:25.426Z,26.22
2023-02-22T09:38:25.383Z,26.22
2023-02-22T09:39:25.458Z,26.21
2023-02-22T09:40:25.342Z,26.22
2023-02-22T09:41:25.269Z,26.18
2023-02-22T09:42:25.216Z,26.15
2023-02-22T09:43:25.184Z,26.13
2023-02-22T09:44:26.034Z,26.11
2023-02-22T09:45:25.122Z,26.13
2023-02-22T09:46:25.060Z,26.09
2023-02-22T09:47:25.037Z,26.11
2023-02-22T09:48:24.971Z,26.07
2023-02-22T09:49:24.974Z,26.08
2023-02-22T09:50:24.902Z,26.09
2023-02-22T09:51:24.871Z,26.07
2023-02-22T09:52:24.827Z,26.08
2023-02-22T09:53:26.394Z,26.08
2023-02-22T10:29:23.454Z,25.87
2023-02-22T10:30:25.286Z,25.87
2023-02-22T10:31:23.452Z,25.86
2023-02-22T10:32:23.411Z,25.87
2023-02-22T10:33:23.294Z,25.86
2023-02-22T10:34:23.258Z,25.86
2023-02-22T10:35:24.186Z,25.83
2023-02-22T10:36:23.208Z,25.83
2023-02-22T10:37:23.201Z,25.81
2023-02-22T10:38:23.154Z,25.81
2023-02-22T10:39:23.100Z,25.83
2023-02-22T10:40:23.104Z,25.81
2023-02-22T10:41:23.044Z,25.81
2023-02-22T10:42:22.995Z,25.80
2023-02-22T10:43:22.944Z,25.81
2023-02-22T10:44:22.899Z,25.80
2023-02-22T10:45:22.865Z,25.80
2023-02-22T10:46:22.873Z,25.83
2023-02-22T10:47:22.813Z,25.89
2023-02-22T10:48:22.746Z,25.89
2023-02-22T10:49:22.719Z,25.91
2023-02-22T10:50:22.669Z,25.94
2023-02-22T10:51:22.675Z,25.96
2023-02-22T10:52:22.603Z,25.97
2023-02-22T10:53:22.585Z,26.00
2023-02-22T10:54:22.512Z,26.01
2023-02-22T10:55:22.474Z,26.04
2023-02-22T10:56:22.478Z,26.05
2023-02-22T10:57:22.424Z,26.07
2023-02-22T10:58:22.349Z,26.11
2023-02-22T10:59:23.492Z,26.13
2023-02-22T11:00:22.308Z,26.14
2023-02-22T11:01:22.358Z,26.13
2023-02-22T11:02:22.239Z,26.14
2023-02-22T11:03:22.191Z,26.14
2023-02-22T11:04:22.147Z,26.14
2023-02-22T11:05:22.131Z,26.15
2023-02-22T11:06:22.144Z,26.15
2023-02-22T11:07:22.042Z,26.17
2023-02-22T11:08:22.086Z,26.18
2023-02-22T11:09:21.983Z,26.17
2023-02-22T11:10:21.927Z,26.20
2023-02-22T11:11:21.881Z,26.21
2023-02-22T11:12:21.846Z,26.21
2023-02-22T11:13:21.822Z,26.24
2023-02-22T11:14:21.760Z,26.22
2023-02-22T11:15:21.719Z,26.25
2023-02-22T11:16:21.708Z,26.27
2023-02-22T11:17:21.643Z,26.25
2023-02-22T11:18:21.653Z,26.30
2023-02-22T11:19:21.557Z,26.30
2023-02-22T11:20:21.508Z,26.30
2023-02-22T11:21:21.462Z,26.30
2023-02-22T11:22:21.446Z,26.32
2023-02-22T11:23:21.410Z,26.32
2023-02-22T11:24:21.357Z,26.31
2023-02-22T11:25:21.327Z,26.32
2023-02-22T11:26:21.316Z,26.34
2023-02-22T11:27:21.255Z,26.36
2023-02-22T11:28:21.220Z,26.38
2023-02-22T11:29:21.165Z,26.36
2023-02-22T11:30:21.216Z,26.38
2023-02-22T11:31:21.361Z,26.38
2023-02-22T11:32:21.180Z,26.39
2023-02-22T11:33:21.035Z,26.39
2023-02-22T11:34:20.994Z,26.41
2023-02-22T11:35:20.967Z,26.41
2023-02-22T11:36:20.946Z,26.39
2023-02-22T11:37:20.864Z,26.41
2023-02-22T11:38:20.866Z,26.43
2023-02-22T11:39:20.800Z,26.45
2023-02-22T11:40:20.760Z,26.45
2023-02-22T11:41:20.882Z,26.46
2023-02-22T11:42:20.668Z,26.46
2023-02-22T11:43:20.672Z,26.46
2023-02-22T11:44:20.592Z,26.43
2023-02-22T11:45:20.600Z,26.43
2023-02-22T11:46:20.556Z,26.42
2023-02-22T11:47:20.478Z,26.39
2023-02-22T11:48:20.428Z,26.36
2023-02-22T11:49:20.384Z,26.38
2023-02-22T11:50:20.345Z,26.35
2023-02-22T11:51:20.563Z,26.36
2023-02-22T11:52:20.275Z,26.38
2023-02-22T11:53:20.227Z,26.34
2023-02-22T11:54:20.181Z,26.32
2023-02-22T11:55:26.741Z,26.32
2023-02-22T11:56:35.699Z,26.30
2023-02-22T11:57:21.065Z,26.31
2023-02-22T11:58:20.035Z,26.28
2023-02-22T11:59:20.066Z,26.28
2023-02-22T12:00:20.014Z,26.24
2023-02-22T12:01:19.967Z,26.25
2023-02-22T12:02:19.892Z,26.24
2023-02-22T12:03:19.931Z,26.27
2023-02-22T12:04:19.874Z,26.24
2023-02-22T12:05:19.815Z,26.25
2023-02-22T12:06:19.920Z,26.24
2023-02-22T12:07:19.692Z,26.22
2023-02-22T12:08:20.299Z,26.21
2023-02-22T12:09:19.624Z,26.24
2023-02-22T12:10:19.610Z,26.21
2023-02-22T12:11:19.563Z,26.22
2023-02-22T12:12:19.518Z,26.21
2023-02-22T12:13:19.527Z,26.18
2023-02-22T12:14:19.454Z,26.20
2023-02-22T12:15:19.394Z,26.15
2023-02-22T12:16:19.785Z,26.15
2023-02-22T12:17:19.324Z,26.13
2023-02-22T12:18:19.324Z,26.13
2023-02-22T12:19:19.257Z,26.11
2023-02-22T12:20:19.234Z,26.09
2023-02-22T12:21:19.188Z,26.07
2023-02-22T12:22:19.151Z,26.07
2023-02-22T12:23:19.113Z,26.05
2023-02-22T12:24:19.091Z,26.05
2023-02-22T12:25:19.030Z,26.07
2023-02-22T12:26:19.143Z,26.03
2023-02-22T12:27:19.003Z,26.01
2023-02-22T12:28:24.664Z,26.01
2023-02-22T12:29:20.001Z,26.00
2023-02-22T12:30:18.902Z,26.00
2023-02-22T12:31:19.176Z,26.00
2023-02-22T12:32:18.845Z,25.98
2023-02-22T12:33:18.725Z,25.97
2023-02-22T12:34:18.751Z,25.97
2023-02-22T12:35:18.660Z,25.96
2023-02-22T12:36:18.627Z,25.97
2023-02-22T12:37:18.624Z,25.98
2023-02-22T12:38:18.563Z,25.96
2023-02-22T12:39:18.533Z,25.96
2023-02-22T12:40:18.518Z,25.96
2023-02-22T12:41:18.831Z,25.96
2023-02-22T12:42:18.472Z,25.97
2023-02-22T12:43:18.396Z,25.97
2023-02-22T12:44:18.363Z,25.94
2023-02-22T12:45:18.339Z,25.93
2023-02-22T12:46:18.313Z,25.94
2023-02-22T12:47:18.256Z,25.91
2023-02-22T12:48:18.224Z,25.91
2023-02-22T12:49:18.177Z,25.91
2023-02-22T12:50:18.143Z,25.91
2023-02-22T12:51:18.366Z,25.91
2023-02-22T12:52:22.191Z,25.93
2023-02-22T12:53:18.090Z,25.93
2023-02-22T12:54:17.995Z,25.93
2023-02-22T12:55:17.951Z,25.91
2023-02-22T12:56:17.912Z,25.89
2023-02-22T12:57:17.869Z,25.91
2023-02-22T12:58:17.834Z,25.89
2023-02-22T12:59:17.796Z,25.90
2023-02-22T13:00:17.765Z,25.87
2023-02-22T13:01:18.287Z,25.86
2023-02-22T13:02:17.683Z,25.87
2023-02-22T13:03:17.670Z,25.86
2023-02-22T13:04:21.230Z,25.84
2023-02-22T13:05:17.648Z,25.84
2023-02-22T13:06:17.541Z,25.84
2023-02-22T13:07:17.504Z,25.84
2023-02-22T13:08:17.470Z,25.83
2023-02-22T13:09:17.517Z,25.83
2023-02-22T13:10:17.380Z,25.81
2023-02-22T13:11:17.682Z,25.80
2023-02-22T13:12:17.306Z,25.81
2023-02-22T13:13:17.266Z,25.79
2023-02-22T13:14:17.234Z,25.81
2023-02-22T13:15:17.209Z,25.81
2023-02-22T13:16:17.212Z,25.79
2023-02-22T13:17:17.118Z,25.80
2023-02-22T13:18:17.118Z,25.80
2023-02-22T13:19:17.028Z,25.79
2023-02-22T13:20:16.991Z,25.77
2023-02-22T13:21:17.312Z,25.81
2023-02-22T13:22:16.890Z,25.81
2023-02-22T13:23:16.853Z,25.79
2023-02-22T13:24:16.793Z,25.81
2023-02-22T13:25:16.762Z,25.83
2023-02-22T13:26:16.715Z,25.80
2023-02-22T13:27:16.665Z,25.81